Time;durP1;ratioP1;P1;durP2;ratioP2;P2;SDS_P1;SDS_P2;PMS_P1;PMS_P2;Temp;Humidity;BMP_temperature;BMP_pressure;BME280_temperature;BME280_humidity;BME280_pressure;Samples;Min_cycle;Max_cycle;Signal;HPM_P1;HPM_P2
2023/03/31 00:00:46;;;;;;;9.98;2.45;;;;;;;8.41;100.00;98435.00;5098645;28;20269;-60
2023/03/31 00:03:12;;;;;;;11.07;2.67;;;;;;;8.43;100.00;98440.09;5088801;28;20032;-60
2023/03/31 00:05:38;;;;;;;7.05;2.25;;;;;;;8.39;100.00;98433.63;5090965;28;20101;-60
2023/03/31 00:08:03;;;;;;;10.13;2.95;;;;;;;8.35;100.00;98422.59;5095993;28;20040;-60
2023/03/31 00:10:32;;;;;;;5.13;2.85;;;;;;;8.35;100.00;98421.81;5095540;28;20034;-60
2023/03/31 00:12:57;;;;;;;8.85;3.10;;;;;;;8.32;100.00;98423.09;5095906;28;20051;-60
2023/03/31 00:15:23;;;;;;;15.88;3.03;;;;;;;8.30;100.00;98411.06;5093324;28;20040;-60
2023/03/31 00:17:48;;;;;;;8.18;2.60;;;;;;;8.35;100.00;98403.91;5100045;28;20554;-60
2023/03/31 00:20:14;;;;;;;8.85;2.88;;;;;;;8.31;100.00;98408.16;5094446;28;20116;-60
2023/03/31 00:22:45;;;;;;;10.73;2.80;;;;;;;8.36;100.00;98399.38;5089261;28;20028;-60
2023/03/31 00:25:11;;;;;;;10.77;3.00;;;;;;;8.32;100.00;98392.94;5093890;28;20110;-60
2023/03/31 00:27:37;;;;;;;6.93;2.92;;;;;;;8.30;100.00;98390.50;5094720;28;20223;-60
2023/03/31 00:30:03;;;;;;;13.10;2.90;;;;;;;8.29;100.00;98382.75;5095806;28;20034;-60
2023/03/31 00:32:28;;;;;;;9.40;2.90;;;;;;;8.26;100.00;98381.38;5092786;28;20055;-60
2023/03/31 00:34:54;;;;;;;18.27;2.80;;;;;;;8.26;100.00;98381.38;5101539;28;20378;-60
2023/03/31 00:37:19;;;;;;;13.13;3.33;;;;;;;8.24;100.00;98370.16;5102394;28;20061;-60
2023/03/31 00:39:45;;;;;;;11.02;3.00;;;;;;;8.23;100.00;98371.19;5090999;28;20025;-60
2023/03/31 00:42:13;;;;;;;10.80;2.75;;;;;;;8.25;100.00;98369.09;5092644;28;20407;-60
2023/03/31 00:45:14;;;;;;;10.10;3.13;;;;;;;8.25;100.00;98365.63;5090073;28;20023;-60
2023/03/31 00:47:51;;;;;;;7.28;2.42;;;;;;;8.18;100.00;98357.78;5099365;28;20729;-60
2023/03/31 00:50:31;;;;;;;15.10;3.10;;;;;;;8.24;100.00;98351.47;5094870;28;20032;-60
2023/03/31 00:52:58;;;;;;;;;;;;;;;8.20;100.00;98347.66;5098940;28;20040;-60
2023/03/31 00:55:29;;;;;;;8.88;2.35;;;;;;;8.17;100.00;98359.66;5098947;28;20456;-60
2023/03/31 00:57:54;;;;;;;14.77;3.20;;;;;;;8.16;100.00;98351.88;5092461;28;20032;-60
2023/03/31 01:00:22;;;;;;;12.65;3.10;;;;;;;8.17;100.00;98359.66;5090156;28;20023;-60
2023/03/31 01:02:51;;;;;;;13.60;3.13;;;;;;;8.17;100.00;98348.16;5095403;28;20497;-60
2023/03/31 01:05:22;;;;;;;15.43;3.05;;;;;;;8.12;100.00;98338.22;5094567;28;20020;-61
2023/03/31 01:07:47;;;;;;;11.63;3.55;;;;;;;8.10;100.00;98345.69;5097649;28;20552;-61
2023/03/31 01:10:13;;;;;;;16.65;3.13;;;;;;;8.11;100.00;98343.81;5076504;28;20031;-60
2023/03/31 01:12:40;;;;;;;17.73;3.10;;;;;;;8.12;100.00;98340.91;5096698;28;20653;-60
2023/03/31 01:15:06;;;;;;;11.18;3.38;;;;;;;8.17;100.00;98342.84;5092350;28;20319;-58
2023/03/31 01:17:31;;;;;;;13.15;3.58;;;;;;;8.18;100.00;98323.06;5096276;28;20122;-58
2023/03/31 01:20:10;;;;;;;11.57;3.35;;;;;;;8.24;100.00;98305.25;5096839;28;20083;-61
2023/03/31 01:22:58;;;;;;;12.57;3.80;;;;;;;8.25;100.00;98307.69;5090313;28;20431;-60
2023/03/31 01:25:42;;;;;;;14.48;3.25;;;;;;;8.34;100.00;98290.19;5093774;28;20050;-61
2023/03/31 01:28:24;;;;;;;19.63;3.60;;;;;;;8.41;100.00;98280.13;5094133;28;20489;-60
2023/03/31 01:31:11;;;;;;;21.55;4.65;;;;;;;8.49;100.00;98275.41;5081522;28;20363;-61
2023/03/31 01:34:16;;;;;;;13.13;3.28;;;;;;;8.55;100.00;98263.72;5092274;28;20545;-60
2023/03/31 01:37:02;;;;;;;14.82;3.38;;;;;;;8.55;100.00;98258.38;5098560;28;20031;-60
2023/03/31 01:40:00;;;;;;;15.93;3.78;;;;;;;8.52;100.00;98254.34;5089685;28;20375;-60
2023/03/31 01:42:35;;;;;;;14.95;3.10;;;;;;;8.49;100.00;98251.38;5103660;28;20114;-60
2023/03/31 01:45:07;;;;;;;15.93;3.45;;;;;;;8.51;100.00;98251.91;5086706;28;20032;-60
2023/03/31 01:47:43;;;;;;;18.13;3.63;;;;;;;8.48;100.00;98255.09;5100034;28;20055;-60
2023/03/31 01:50:21;;;;;;;14.73;3.78;;;;;;;8.50;100.00;98244.97;5099200;28;20036;-60
2023/03/31 01:52:52;;;;;;;12.18;3.28;;;;;;;8.51;100.00;98251.91;5094791;28;20024;-60
2023/03/31 01:55:52;;;;;;;15.80;4.32;;;;;;;8.59;100.00;98243.47;5098305;28;20323;-60
2023/03/31 01:58:22;;;;;;;17.35;3.15;;;;;;;8.66;100.00;98248.56;5084760;28;20036;-60
2023/03/31 02:00:50;;;;;;;;;;;;;;;8.76;100.00;98246.81;5095134;28;20119;-60
2023/03/31 02:03:47;;;;;;;14.23;2.83;;;;;;;8.74;100.00;98240.91;5093940;28;19919;-60
2023/03/31 02:06:16;;;;;;;8.30;2.60;;;;;;;8.74;100.00;98235.56;5093199;28;20040;-60
2023/03/31 02:08:48;;;;;;;19.73;3.45;;;;;;;8.68;100.00;98235.78;5085079;28;20023;-60
2023/03/31 02:11:14;;;;;;;16.27;3.13;;;;;;;8.54;100.00;98225.50;5102238;28;20036;-60
2023/03/31 02:13:40;;;;;;;18.13;3.80;;;;;;;8.51;100.00;98225.19;5081184;28;20424;-60
2023/03/31 02:16:09;;;;;;;16.70;3.78;;;;;;;8.47;100.00;98208.09;5118754;27;20508;-60
2023/03/31 02:18:37;;;;;;;17.55;3.25;;;;;;;8.46;100.00;98206.47;5081292;28;20036;-60
2023/03/31 02:21:03;;;;;;;10.98;3.08;;;;;;;8.45;100.00;98197.66;5098640;28;20457;-60
2023/03/31 02:23:30;;;;;;;22.50;4.03;;;;;;;8.48;100.00;98191.00;5096599;28;20772;-60
2023/03/31 02:26:02;;;;;;;14.07;3.33;;;;;;;8.49;100.00;98179.28;5093507;28;20032;-60
2023/03/31 02:28:28;;;;;;;16.77;3.33;;;;;;;8.52;100.00;98168.06;5086378;28;20538;-60
2023/03/31 02:31:14;;;;;;;20.58;3.30;;;;;;;8.49;100.00;98147.22;5100508;28;20104;-60
2023/03/31 02:33:40;;;;;;;15.63;2.88;;;;;;;8.51;100.00;98142.41;5097079;28;20023;-60
2023/03/31 02:36:06;;;;;;;21.27;3.40;;;;;;;8.52;100.00;98123.47;5099107;28;20058;-60
2023/03/31 02:38:33;;;;;;;11.18;2.70;;;;;;;8.53;100.00;98111.72;5095085;28;20470;-61
2023/03/31 02:40:58;;;;;;;17.50;2.95;;;;;;;8.45;100.00;98103.41;5076287;28;20032;-60
2023/03/31 02:43:23;;;;;;;14.80;3.30;;;;;;;8.50;100.00;98096.22;5096995;28;20549;-60
2023/03/31 02:45:49;;;;;;;17.67;3.40;;;;;;;8.54;100.00;98109.88;5100212;28;20028;-60
2023/03/31 02:48:20;;;;;;;14.43;3.20;;;;;;;8.46;100.00;98111.13;5104574;28;20114;-60
2023/03/31 02:51:30;;;;;;;16.15;3.17;;;;;;;8.51;100.00;98089.84;5098744;28;20023;-60
2023/03/31 02:53:56;;;;;;;21.25;3.70;;;;;;;8.52;100.00;98071.94;5100104;28;20470;-59
2023/03/31 02:56:26;;;;;;;13.55;3.47;;;;;;;8.53;100.00;98060.19;5097975;28;20043;-59
2023/03/31 02:59:09;;;;;;;16.90;3.45;;;;;;;8.59;100.00;98061.84;5098901;28;20035;-60
2023/03/31 03:02:07;;;;;;;19.10;3.70;;;;;;;8.54;100.00;98061.81;5100119;28;20383;-60
2023/03/31 03:04:41;;;;;;;17.98;3.33;;;;;;;8.52;100.00;98066.59;5067961;28;20105;-59
2023/03/31 03:07:23;;;;;;;16.95;3.92;;;;;;;8.46;100.00;98060.38;5096282;28;20023;-60
2023/03/31 03:10:15;;;;;;;16.48;3.17;;;;;;;8.52;100.00;98050.56;5102365;28;20084;-60
2023/03/31 03:13:03;;;;;;;12.80;3.03;;;;;;;8.49;100.00;98059.09;5097489;28;20046;-59
2023/03/31 03:15:34;;;;;;;18.35;3.70;;;;;;;8.52;100.00;98035.34;5093409;28;20151;-60
2023/03/31 03:18:00;;;;;;;18.83;3.38;;;;;;;8.52;100.00;98031.88;5090717;28;20490;-60
2023/03/31 03:20:25;;;;;;;17.88;3.65;;;;;;;8.50;100.00;98010.75;5094686;28;20039;-59
2023/03/31 03:22:51;;;;;;;21.90;3.38;;;;;;;8.59;100.00;97992.41;5090768;28;20432;-59
2023/03/31 03:25:17;;;;;;;26.23;3.85;;;;;;;8.60;100.00;97994.00;5099708;28;20032;-59
2023/03/31 03:27:42;;;;;;;19.35;3.15;;;;;;;8.54;100.00;97998.50;5096122;28;20387;-59
2023/03/31 03:30:09;;;;;;;10.25;2.75;;;;;;;8.55;100.00;98001.97;5100273;28;20072;-61
2023/03/31 03:32:34;;;;;;;23.67;3.75;;;;;;;8.53;100.00;98004.09;5096904;28;20107;-61
2023/03/31 03:35:00;;;;;;;19.05;3.38;;;;;;;8.49;100.00;98014.50;5095509;28;20496;-58
2023/03/31 03:37:29;;;;;;;22.00;3.63;;;;;;;8.50;100.00;98004.63;5095299;28;20106;-59
2023/03/31 03:39:54;;;;;;;11.93;2.78;;;;;;;8.45;100.00;98001.94;5099486;28;20024;-61
2023/03/31 03:42:20;;;;;;;18.60;3.33;;;;;;;8.39;100.00;98006.41;5089753;28;20707;-60
2023/03/31 03:44:45;;;;;;;17.48;3.22;;;;;;;8.39;100.00;98012.56;5089875;27;20039;-61
2023/03/31 03:47:10;;;;;;;11.00;3.00;;;;;;;8.42;100.00;98003.25;5090773;28;20047;-60
2023/03/31 03:49:36;;;;;;;21.65;3.75;;;;;;;8.49;100.00;97998.47;5097763;28;20024;-61
2023/03/31 03:52:02;;;;;;;11.77;2.78;;;;;;;8.55;100.00;97992.09;5097380;28;20031;-60
2023/03/31 03:54:27;;;;;;;23.00;3.80;;;;;;;8.54;100.00;97992.38;5096870;28;20036;-60
2023/03/31 03:56:52;;;;;;;13.02;2.63;;;;;;;8.49;100.00;97987.00;5091223;28;20074;-60
2023/03/31 03:59:18;;;;;;;13.30;2.72;;;;;;;8.52;100.00;97986.47;5097007;28;20031;-60
2023/03/31 04:01:43;;;;;;;21.38;3.22;;;;;;;8.48;100.00;97985.38;5091477;28;20055;-60
2023/03/31 04:04:09;;;;;;;13.98;2.78;;;;;;;8.50;100.00;97980.59;5096478;28;20077;-61
2023/03/31 04:06:34;;;;;;;12.55;3.10;;;;;;;8.52;100.00;97986.47;5094693;28;20016;-60
2023/03/31 04:09:00;;;;;;;26.63;4.35;;;;;;;8.49;100.00;97984.34;5094536;28;20070;-61
2023/03/31 04:11:26;;;;;;;13.98;3.00;;;;;;;8.48;100.00;97988.84;5099878;27;20389;-60
2023/03/31 04:13:52;;;;;;;14.95;3.15;;;;;;;8.48;100.00;97980.84;5088135;28;20172;-60
2023/03/31 04:16:17;;;;;;;21.70;3.55;;;;;;;8.45;100.00;97969.88;5099810;28;20020;-60
2023/03/31 04:18:47;;;;;;;12.65;3.45;;;;;;;8.45;100.00;97969.88;5095832;28;20778;-60
2023/03/31 04:21:21;;;;;;;23.10;3.47;;;;;;;8.42;100.00;97966.66;5100973;28;20115;-60
2023/03/31 04:23:46;;;;;;;14.73;3.75;;;;;;;8.42;100.00;97950.66;5099362;28;20032;-60
2023/03/31 04:26:13;;;;;;;14.95;3.35;;;;;;;8.36;100.00;97951.66;5098178;28;20382;-60
2023/03/31 04:28:41;;;;;;;17.42;3.10;;;;;;;8.36;100.00;97938.31;5092256;28;20118;-60
2023/03/31 04:31:08;;;;;;;19.20;3.38;;;;;;;8.31;100.00;97924.94;5095058;28;20065;-60
2023/03/31 04:33:37;;;;;;;13.00;2.92;;;;;;;8.24;100.00;97921.69;5101723;28;20024;-60
2023/03/31 04:36:16;;;;;;;20.63;3.67;;;;;;;8.27;100.00;97907.81;5098214;28;20124;-60
2023/03/31 04:38:45;;;;;;;13.85;2.80;;;;;;;8.21;100.00;97901.66;5094559;28;20024;-61
2023/03/31 04:41:13;;;;;;;23.67;3.97;;;;;;;8.23;100.00;97903.25;5093611;28;20482;-60
2023/03/31 04:43:39;;;;;;;20.05;2.95;;;;;;;8.17;100.00;97894.44;5093761;28;20380;-60
2023/03/31 04:46:04;;;;;;;14.98;3.53;;;;;;;8.12;100.00;97889.88;5098503;28;20046;-60
2023/03/31 04:48:30;;;;;;;18.48;3.15;;;;;;;8.16;100.00;97882.97;5093424;28;20126;-61
2023/03/31 04:50:55;;;;;;;17.00;3.40;;;;;;;8.09;100.00;97892.25;5093850;28;20024;-60
2023/03/31 04:53:21;;;;;;;17.27;3.95;;;;;;;8.10;100.00;97889.31;5087456;28;20141;-61
2023/03/31 04:55:48;;;;;;;16.77;3.53;;;;;;;8.09;100.00;97890.38;5101133;28;20090;-60
2023/03/31 04:58:13;;;;;;;15.40;2.97;;;;;;;8.10;100.00;97891.19;5097797;28;20020;-61
2023/03/31 05:00:38;;;;;;;14.15;2.75;;;;;;;8.09;100.00;97886.94;5096443;28;20035;-60
2023/03/31 05:03:04;;;;;;;19.92;3.28;;;;;;;8.07;100.00;97889.03;5094995;28;20036;-60
2023/03/31 05:05:29;;;;;;;16.45;3.03;;;;;;;8.02;100.00;97894.34;5094492;28;20032;-60
2023/03/31 05:07:55;;;;;;;13.43;3.15;;;;;;;8.00;100.00;97892.72;5088410;28;20444;-59
2023/03/31 05:10:20;;;;;;;17.38;2.80;;;;;;;8.02;100.00;97892.47;5096033;28;20278;-59
2023/03/31 05:12:46;;;;;;;14.90;3.55;;;;;;;8.02;100.00;97881.81;5096779;28;20050;-59
2023/03/31 05:15:11;;;;;;;13.68;2.58;;;;;;;7.95;100.00;97876.69;5098066;28;20032;-61
2023/03/31 05:17:37;;;;;;;14.90;2.90;;;;;;;7.93;100.00;97876.13;5090938;28;20024;-61
2023/03/31 05:20:06;;;;;;;12.85;3.10;;;;;;;7.95;100.00;97866.00;5091362;28;20101;-60
2023/03/31 05:22:35;;;;;;;22.13;3.97;;;;;;;7.89;100.00;97868.94;5098111;27;20027;-61
2023/03/31 05:25:01;;;;;;;10.77;2.80;;;;;;;7.90;100.00;97857.97;5100694;28;20039;-61
2023/03/31 05:27:26;;;;;;;11.13;3.03;;;;;;;7.87;100.00;97855.84;5096207;28;20054;-61
2023/03/31 05:29:52;;;;;;;17.60;2.95;;;;;;;7.83;100.00;97848.59;5099092;28;20031;-60
2023/03/31 05:32:18;;;;;;;12.85;3.03;;;;;;;7.79;100.00;97837.66;5095398;28;20028;-61
2023/03/31 05:34:43;;;;;;;15.10;3.42;;;;;;;7.80;100.00;97822.47;5095699;28;20024;-61
2023/03/31 05:37:09;;;;;;;14.05;2.70;;;;;;;7.75;100.00;97820.56;5090065;28;20509;-59
2023/03/31 05:39:34;;;;;;;15.52;3.42;;;;;;;7.74;100.00;97825.09;5098971;28;20135;-59
2023/03/31 05:42:00;;;;;;;11.95;2.97;;;;;;;7.73;100.00;97822.69;5098978;28;20178;-61
2023/03/31 05:44:26;;;;;;;14.82;3.25;;;;;;;7.66;100.00;97820.25;5088185;28;20046;-61
2023/03/31 05:46:52;;;;;;;10.05;3.17;;;;;;;7.67;100.00;97805.84;5096647;28;20109;-60
2023/03/31 05:49:17;;;;;;;16.10;3.55;;;;;;;7.66;100.00;97808.75;5102455;28;20026;-60
2023/03/31 05:51:43;;;;;;;13.93;3.40;;;;;;;7.68;100.00;97802.09;5095100;28;20023;-61
2023/03/31 05:54:08;;;;;;;18.50;3.20;;;;;;;7.70;100.00;97794.66;5093314;28;20031;-61
2023/03/31 05:56:34;;;;;;;12.70;2.85;;;;;;;7.71;100.00;97795.47;5100054;28;20028;-60
2023/03/31 05:59:00;;;;;;;11.75;3.00;;;;;;;7.71;100.00;97785.63;5097674;28;20058;-60
2023/03/31 06:01:25;;;;;;;15.40;3.03;;;;;;;7.73;100.00;97775.47;5092969;28;20043;-61
2023/03/31 06:03:51;;;;;;;14.40;2.97;;;;;;;7.73;100.00;97761.34;5088842;28;20024;-61
2023/03/31 06:06:17;;;;;;;14.43;3.88;;;;;;;7.76;100.00;97744.81;5097976;28;20023;-60
2023/03/31 06:08:43;;;;;;;15.68;3.17;;;;;;;7.87;100.00;97740.34;5099725;28;20027;-60
2023/03/31 06:11:10;;;;;;;14.95;3.08;;;;;;;7.84;100.00;97722.16;5094658;28;20067;-60
2023/03/31 06:13:36;;;;;;;11.00;2.85;;;;;;;7.89;100.00;97725.69;5095664;28;20473;-60
2023/03/31 06:16:01;;;;;;;14.82;2.88;;;;;;;7.86;100.00;97710.19;5091519;28;20426;-60
2023/03/31 06:18:28;;;;;;;14.50;3.20;;;;;;;7.91;100.00;97714.72;5098057;28;20031;-60
2023/03/31 06:20:54;;;;;;;12.70;2.67;;;;;;;7.92;100.00;97711.81;5097226;28;20030;-60
2023/03/31 06:23:19;;;;;;;12.75;3.13;;;;;;;7.92;100.00;97701.13;5099993;28;20039;-60
2023/03/31 06:25:45;;;;;;;15.57;3.20;;;;;;;7.91;100.00;97699.53;5101475;28;20023;-60
2023/03/31 06:28:10;;;;;;;13.88;2.72;;;;;;;7.93;100.00;97708.06;5104168;28;20114;-60
2023/03/31 06:30:36;;;;;;;12.13;2.80;;;;;;;7.98;100.00;97693.94;5099259;28;20032;-60
2023/03/31 06:33:01;;;;;;;9.55;3.83;;;;;;;7.93;100.00;97686.72;5091709;28;20039;-61
2023/03/31 06:35:27;;;;;;;10.23;3.38;;;;;;;8.03;100.00;97682.47;5096301;28;20439;-60
2023/03/31 06:37:52;;;;;;;11.50;3.17;;;;;;;8.07;100.00;97668.34;5102784;28;20531;-58
2023/03/31 06:40:18;;;;;;;11.75;2.72;;;;;;;8.08;100.00;97669.16;5095998;28;20546;-61
2023/03/31 06:42:43;;;;;;;10.43;3.22;;;;;;;8.15;100.00;97669.69;5092534;28;20485;-61
2023/03/31 06:45:09;;;;;;;7.95;2.80;;;;;;;8.76;100.00;97660.94;5098074;28;20059;-61
2023/03/31 06:47:36;;;;;;;11.57;3.13;;;;;;;8.48;100.00;97655.06;5096505;28;20587;-61
2023/03/31 06:50:06;;;;;;;13.07;3.53;;;;;;;8.56;100.00;97662.56;5096773;28;20055;-59
2023/03/31 06:52:31;;;;;;;7.80;2.80;;;;;;;8.67;100.00;97660.69;5098019;28;20019;-60
2023/03/31 06:54:56;;;;;;;7.30;2.95;;;;;;;8.62;100.00;97658.03;5106428;27;20088;-60
2023/03/31 06:57:25;;;;;;;6.93;2.65;;;;;;;8.71;100.00;97661.75;5104411;27;20023;-59
2023/03/31 06:59:50;;;;;;;6.78;2.60;;;;;;;8.76;100.00;97672.44;5096029;28;20020;-60
2023/03/31 07:02:16;;;;;;;6.88;2.60;;;;;;;8.56;100.00;97667.09;5093349;28;20032;-60
2023/03/31 07:04:41;;;;;;;10.15;3.45;;;;;;;8.75;100.00;97665.47;5094641;28;20094;-61
2023/03/31 07:07:09;;;;;;;9.10;2.70;;;;;;;8.77;100.00;97662.56;5098294;28;20031;-59
2023/03/31 07:09:35;;;;;;;9.93;2.80;;;;;;;8.71;100.00;97660.94;5097625;28;20114;-60
2023/03/31 07:12:03;;;;;;;9.13;2.63;;;;;;;8.70;100.00;97649.47;5098977;28;20543;-61
2023/03/31 07:14:29;;;;;;;10.48;3.97;;;;;;;8.49;100.00;97651.34;5098842;28;20052;-61
2023/03/31 07:16:54;;;;;;;7.47;2.80;;;;;;;8.71;100.00;97637.72;5092857;28;20039;-59
2023/03/31 07:19:20;;;;;;;6.72;2.70;;;;;;;8.94;100.00;97644.38;5094957;28;20031;-62
2023/03/31 07:21:45;;;;;;;8.27;2.72;;;;;;;9.09;100.00;97640.84;5096203;27;20031;-61
2023/03/31 07:24:11;;;;;;;5.60;2.75;;;;;;;9.15;100.00;97631.75;5097050;28;20034;-61
2023/03/31 07:26:36;;;;;;;5.72;2.47;;;;;;;9.24;100.00;97638.13;5097877;28;20023;-59
2023/03/31 07:29:02;;;;;;;9.05;2.88;;;;;;;9.36;100.00;97637.00;5092380;28;20386;-59
2023/03/31 07:31:27;;;;;;;11.90;2.78;;;;;;;9.36;100.00;97637.00;5094564;28;20035;-59
2023/03/31 07:33:52;;;;;;;6.75;2.60;;;;;;;9.41;100.00;97639.66;5093545;27;20031;-61
2023/03/31 07:36:18;;;;;;;6.05;2.88;;;;;;;9.39;100.00;97629.25;5093748;28;20062;-59
2023/03/31 07:38:45;;;;;;;7.10;2.65;;;;;;;9.33;100.00;97626.88;5093166;28;20238;-59
2023/03/31 07:41:16;;;;;;;8.13;2.83;;;;;;;9.55;100.00;97613.94;5098981;28;20028;-59
2023/03/31 07:43:41;;;;;;;6.68;2.50;;;;;;;9.53;100.00;97610.75;5093325;28;20028;-59
2023/03/31 07:46:13;;;;;;;4.82;2.47;;;;;;;9.46;100.00;97616.41;5076887;28;20047;-59
2023/03/31 07:48:39;;;;;;;5.80;2.80;;;;;;;9.65;100.00;97613.88;5092075;28;20055;-59
2023/03/31 07:51:04;;;;;;;8.10;2.95;;;;;;;11.23;100.00;97614.50;5094032;28;20421;-59
2023/03/31 07:53:30;;;;;;;4.25;2.20;;;;;;;10.84;100.00;97601.25;5092714;28;20054;-59
2023/03/31 07:55:55;;;;;;;6.45;2.45;;;;;;;12.16;96.38;97614.13;5093575;28;20545;-59
2023/03/31 07:58:21;;;;;;;7.28;2.83;;;;;;;12.62;94.82;97604.50;5091967;28;20036;-59
2023/03/31 08:00:46;;;;;;;6.55;2.60;;;;;;;12.73;93.56;97612.09;5092563;28;20047;-59
2023/03/31 08:03:12;;;;;;;9.85;2.80;;;;;;;12.47;92.58;97621.69;5094076;28;20027;-59
2023/03/31 08:05:37;;;;;;;8.48;2.47;;;;;;;11.36;99.39;97628.31;5090587;28;20035;-61
2023/03/31 08:08:03;;;;;;;5.75;2.22;;;;;;;11.01;100.00;97628.41;5096539;28;20035;-59
2023/03/31 08:10:28;;;;;;;8.93;2.72;;;;;;;11.24;100.00;97617.97;5098998;28;20027;-60
2023/03/31 08:12:54;;;;;;;6.13;2.58;;;;;;;12.92;94.91;97619.31;5096473;28;20032;-59
2023/03/31 08:15:20;;;;;;;6.38;3.00;;;;;;;13.97;87.98;97618.56;5096873;28;20046;-60
2023/03/31 08:17:45;;;;;;;9.82;2.63;;;;;;;13.68;87.47;97629.69;5093306;28;20031;-59
2023/03/31 08:20:11;;;;;;;6.70;2.40;;;;;;;12.46;92.54;97625.47;5096409;28;20028;-59
2023/03/31 08:22:37;;;;;;;11.10;3.28;;;;;;;11.97;95.91;97632.91;5096191;28;20049;-60
2023/03/31 08:25:03;;;;;;;7.90;2.60;;;;;;;11.96;97.87;97633.22;5095924;28;20023;-60
2023/03/31 08:27:32;;;;;;;9.75;4.18;;;;;;;11.68;98.57;97624.94;5093052;28;20031;-60
2023/03/31 08:30:02;;;;;;;12.38;3.03;;;;;;;11.36;100.00;97629.09;5095167;28;20028;-59
2023/03/31 08:32:27;;;;;;;12.52;2.63;;;;;;;10.85;100.00;97624.28;5090684;28;20027;-59
2023/03/31 08:34:52;;;;;;;8.90;2.70;;;;;;;10.93;100.00;97621.00;5090824;28;20029;-59
2023/03/31 08:37:18;;;;;;;13.15;4.72;;;;;;;11.05;100.00;97620.59;5092954;28;20054;-59
2023/03/31 08:39:43;;;;;;;10.60;2.95;;;;;;;10.98;100.00;97629.00;5093742;28;20581;-59
2023/03/31 08:42:18;;;;;;;10.02;3.40;;;;;;;10.91;100.00;97623.16;5094021;28;20085;-60
2023/03/31 08:44:49;;;;;;;11.18;5.03;;;;;;;10.78;100.00;97631.84;5086353;28;20035;-59
2023/03/31 08:47:17;;;;;;;12.75;5.50;;;;;;;10.68;100.00;97619.34;5093387;28;20028;-59
2023/03/31 08:49:52;;;;;;;17.63;6.20;;;;;;;10.46;100.00;97625.19;5095457;28;20055;-59
2023/03/31 08:52:22;;;;;;;10.40;3.05;;;;;;;10.36;100.00;97622.59;5094703;28;20028;-60
2023/03/31 08:54:52;;;;;;;8.77;2.88;;;;;;;10.24;100.00;97609.50;5084348;28;20522;-60
2023/03/31 08:57:21;;;;;;;14.13;3.28;;;;;;;9.97;100.00;97601.94;5095703;28;20073;-59
2023/03/31 08:59:46;;;;;;;14.70;3.50;;;;;;;10.09;100.00;97591.69;5082205;28;20054;-59
2023/03/31 09:02:37;;;;;;;20.90;11.25;;;;;;;10.21;100.00;97606.56;5100412;28;20589;-60
2023/03/31 09:05:30;;;;;;;19.73;7.05;;;;;;;10.40;100.00;97596.81;5100389;28;20028;-60
2023/03/31 09:08:32;;;;;;;29.05;9.80;;;;;;;10.56;100.00;97611.69;5096588;28;20075;-60
2023/03/31 09:11:03;;;;;;;30.33;11.55;;;;;;;10.49;100.00;97611.22;5093638;28;20036;-60
2023/03/31 09:13:44;;;;;;;18.75;4.45;;;;;;;10.40;100.00;97604.06;5104697;28;20516;-59
2023/03/31 09:16:15;;;;;;;13.88;3.90;;;;;;;10.50;100.00;97601.28;5094976;28;20071;-60
2023/03/31 09:18:48;;;;;;;12.27;4.22;;;;;;;10.39;100.00;97595.22;5100620;28;20485;-59
2023/03/31 09:21:31;;;;;;;16.85;4.20;;;;;;;10.27;100.00;97581.38;5098966;27;20024;-60
2023/03/31 09:24:15;;;;;;;12.55;3.50;;;;;;;10.32;100.00;97578.69;5103441;28;20218;-60
2023/03/31 09:26:44;;;;;;;42.78;12.57;;;;;;;10.45;100.00;97572.66;5095792;28;20039;-59
2023/03/31 09:29:14;;;;;;;13.45;4.07;;;;;;;10.40;100.00;97562.00;5086316;28;20110;-59
2023/03/31 09:31:41;;;;;;;;;;;;;;;10.70;100.00;97560.13;5101969;28;20039;-59
2023/03/31 09:34:13;;;;;;;15.70;3.45;;;;;;;10.89;100.00;97565.56;5095328;28;20370;-60
2023/03/31 09:36:38;;;;;;;24.35;9.15;;;;;;;11.11;100.00;97560.47;5098606;28;20028;-59
2023/03/31 09:39:04;;;;;;;12.27;3.55;;;;;;;11.32;100.00;97552.97;5102605;28;20470;-59
2023/03/31 09:41:29;;;;;;;11.63;4.97;;;;;;;11.35;100.00;97549.72;5102734;28;20023;-60
2023/03/31 09:43:55;;;;;;;9.13;2.65;;;;;;;11.19;100.00;97559.03;5099979;28;20035;-61
2023/03/31 09:46:25;;;;;;;10.35;3.13;;;;;;;10.90;100.00;97565.25;5098487;28;20028;-60
2023/03/31 09:48:57;;;;;;;25.30;10.30;;;;;;;10.79;100.00;97566.47;5098508;28;20114;-61
2023/03/31 09:51:28;;;;;;;20.35;6.22;;;;;;;10.79;100.00;97572.63;5080083;28;20028;-61
2023/03/31 09:54:24;;;;;;;21.95;3.70;;;;;;;10.51;100.00;97566.19;5101445;28;20573;-60
2023/03/31 09:56:52;;;;;;;14.55;3.20;;;;;;;10.12;100.00;97563.56;5095124;28;20028;-60
2023/03/31 09:59:37;;;;;;;14.80;3.20;;;;;;;9.93;100.00;97560.75;5099127;28;20024;-60
2023/03/31 10:02:23;;;;;;;18.88;4.53;;;;;;;9.78;100.00;97540.25;5102042;28;20119;-60
2023/03/31 10:04:49;;;;;;;14.65;4.63;;;;;;;9.78;100.00;97553.63;5096797;28;20485;-60
2023/03/31 10:07:22;;;;;;;21.77;8.48;;;;;;;9.84;100.00;97559.75;5100972;28;20035;-61
2023/03/31 10:09:47;;;;;;;17.17;3.88;;;;;;;9.78;100.00;97558.16;5090351;28;20027;-62
2023/03/31 10:12:19;;;;;;;20.98;5.88;;;;;;;10.02;100.00;97571.66;5101336;28;20016;-60
2023/03/31 10:14:48;;;;;;;15.30;4.78;;;;;;;10.20;100.00;97559.47;5103919;28;20063;-61
2023/03/31 10:17:20;;;;;;;34.17;18.90;;;;;;;10.70;100.00;97552.09;5100243;28;20030;-62
2023/03/31 10:20:05;;;;;;;10.43;4.22;;;;;;;11.06;99.81;97538.28;5094640;28;20031;-59
2023/03/31 10:22:31;;;;;;;11.30;2.80;;;;;;;11.74;97.00;97535.22;5093803;28;20061;-59
2023/03/31 10:25:16;;;;;;;14.30;3.65;;;;;;;12.02;97.38;97535.38;5092385;28;20406;-60
2023/03/31 10:27:44;;;;;;;14.07;2.67;;;;;;;11.59;98.08;97522.84;5091627;28;20131;-59
2023/03/31 10:30:11;;;;;;;13.95;4.93;;;;;;;11.83;98.35;97530.81;5097965;28;20523;-59
2023/03/31 10:32:42;;;;;;;15.52;5.05;;;;;;;11.60;100.00;97515.56;5099810;27;20111;-59
2023/03/31 10:35:32;;;;;;;21.92;5.03;;;;;;;11.52;100.00;97517.03;5093831;28;20046;-59
2023/03/31 10:38:05;;;;;;;20.25;3.97;;;;;;;11.44;100.00;97518.47;5089145;28;20244;-59
2023/03/31 10:40:31;;;;;;;20.30;5.20;;;;;;;11.37;100.00;97518.03;5088837;28;20032;-59
2023/03/31 10:43:09;;;;;;;19.50;6.45;;;;;;;11.31;99.34;97524.56;5095678;27;20057;-59
2023/03/31 10:45:48;;;;;;;26.60;6.25;;;;;;;11.54;98.97;97522.13;5081821;28;20631;-60
2023/03/31 10:48:19;;;;;;;15.43;3.33;;;;;;;11.55;96.36;97508.38;5100383;28;20545;-59
2023/03/31 10:50:45;;;;;;;13.27;2.90;;;;;;;11.59;94.83;97527.41;5091625;28;20031;-59
2023/03/31 10:53:12;;;;;;;19.60;3.35;;;;;;;11.51;94.27;97528.06;5091741;28;20032;-59
2023/03/31 10:55:45;;;;;;;20.73;3.28;;;;;;;11.57;94.83;97526.91;5090219;28;20102;-59
2023/03/31 10:58:13;;;;;;;15.10;2.50;;;;;;;11.31;97.98;97513.84;5095637;28;20015;-59
2023/03/31 11:01:13;;;;;;;13.68;2.60;;;;;;;11.15;94.71;97509.75;5096987;28;20119;-59
2023/03/31 11:03:57;;;;;;;9.77;2.43;;;;;;;11.05;92.86;97504.50;5086451;28;20040;-59
2023/03/31 11:06:51;;;;;;;8.02;2.28;;;;;;;11.32;93.78;97514.63;5099385;28;20050;-61
2023/03/31 11:09:52;;;;;;;11.30;2.53;;;;;;;11.37;92.56;97518.03;5087028;28;20169;-59
2023/03/31 11:12:23;;;;;;;8.10;2.15;;;;;;;11.44;91.56;97507.75;5087447;28;20062;-59
2023/03/31 11:14:52;;;;;;;11.63;2.33;;;;;;;11.84;90.93;97510.91;5078796;28;20505;-59
2023/03/31 11:17:36;;;;;;;9.43;2.70;;;;;;;11.93;88.20;97504.91;5101995;28;20055;-59
2023/03/31 11:20:41;;;;;;;10.32;2.60;;;;;;;12.24;86.36;97502.53;5097092;28;20063;-59
2023/03/31 11:23:15;;;;;;;16.02;2.40;;;;;;;12.38;85.71;97507.91;5080118;28;20429;-59
2023/03/31 11:26:24;;;;;;;8.23;2.13;;;;;;;12.55;85.47;97497.38;5096093;28;20164;-59
2023/03/31 11:29:22;;;;;;;11.68;2.25;;;;;;;12.59;84.05;97502.97;5056939;28;20036;-58
2023/03/31 11:32:22;;;;;;;8.68;2.03;;;;;;;12.72;84.29;97496.81;5098023;28;20023;-59
2023/03/31 11:35:08;;;;;;;12.25;2.25;;;;;;;12.50;83.85;97494.78;5094953;28;20027;-59
2023/03/31 11:37:41;;;;;;;10.88;2.30;;;;;;;12.39;85.08;97504.94;5093311;28;20032;-59
2023/03/31 11:40:33;;;;;;;16.50;2.83;;;;;;;12.37;86.22;97506.34;5097363;28;20428;-59
2023/03/31 11:43:09;;;;;;;17.50;3.35;;;;;;;12.30;87.81;97498.66;5082291;28;20521;-58